Carnival Spirit — 9HA3097 — position and weather

sailwx.info

Track history (hours):
 
Tides and Currents Weather Stations Pressure Air Temp Water Temp Dewpoint Dewpoint Depression Visibility Wind Speed Wind Dir Waves Ship Positions

Carnival Spirit

Last reported at 2020-Mar-29 03:30 UTC. Time now 2020-Apr-02 02:58 UTC.
Position S 32°44' E 152°46'.

Length 293 m; draft 8.5 m.

Type: Ship. MMSI: 229136000.

Date/timePositionNaut miles runAvg speedWind from/ knotsBaromVisibWave heightAir tempDewpointWater temp
2020-Mar-29 03:30S 32°44' E 152°46'5 4.6
2020-Mar-29 02:30S 32°47' E 152°42'21 8.4
2020-Mar-29 00:00S 33°03' E 152°25'510.3
2020-Mar-28 23:30S 33°07' E 152°21'62 7.7
2020-Mar-28 15:30S 33°53' E 151°32'14 4.6
2020-Mar-28 12:30S 34°03' E 151°20'2 3.7
2020-Mar-28 12:00S 34°05' E 151°19'2 3.7
2020-Mar-28 11:30S 34°06' E 151°17'9 0.2
2020-Mar-26 10:59S 34°12' E 151°09'7 7.2
2020-Mar-26 10:00S 34°08' E 151°16'4 7.7
2020-Mar-26 09:30S 34°06' E 151°20'11 7.6
2020-Mar-26 08:00S 33°60' E 151°31'4 8.2
2020-Mar-26 07:30S 33°56' E 151°32'4 8.1
2020-Mar-26 07:00S 33°52' E 151°33'4 7.9
2020-Mar-26 06:30S 33°48' E 151°34'3 6.3
2020-Mar-26 06:00S 33°46' E 151°31'3 6.8
2020-Mar-26 05:30S 33°45' E 151°27'8 7.6
2020-Mar-26 04:30S 33°38' E 151°31'9 7.5
2020-Mar-26 03:18S 33°29' E 151°34'31 7.1
2020-Mar-25 23:00S 33°59' E 151°23'12 5.0
2020-Mar-25 20:30S 33°46' E 151°24'19 1.0
2020-Mar-25 01:31S 34°04' E 151°31'510.8
2020-Mar-25 01:00S 33°59' E 151°33'611.5
2020-Mar-25 00:30S 33°54' E 151°36'4 2.7
2020-Mar-24 23:01S 33°57' E 151°34'3 2.2
2020-Mar-24 21:30S 33°60' E 151°32'13 8.9
2020-Mar-24 20:00S 33°47' E 151°35'4 8.1
2020-Mar-24 19:31S 33°43' E 151°36'3 5.8
2020-Mar-24 19:00S 33°46' E 151°37'10 6.9
2020-Mar-24 17:31S 33°56' E 151°33'3 6.7
2020-Mar-24 17:01S 33°59' E 151°32'7 4.7
2020-Mar-24 15:30S 34°05' E 151°35'10 6.8
2020-Mar-24 14:01S 33°55' E 151°37'4 8.6
2020-Mar-24 13:30S 33°51' E 151°38'611.5
2020-Mar-24 13:01S 33°45' E 151°37'16 5.5
2020-Mar-24 10:01S 33°57' E 151°24'7 4.9
2020-Mar-24 08:30S 33°50' E 151°27'3 5.5
2020-Mar-24 08:00S 33°50' E 151°30'3 6.9
2020-Mar-24 07:30S 33°49' E 151°34'3 1.3
2020-Mar-24 05:30S 33°49' E 151°37'12 2.9
2020-Mar-24 01:30S 33°58' E 151°28'6 6.0
2020-Mar-24 00:30S 33°52' E 151°29'6 5.8
2020-Mar-23 23:31S 33°46' E 151°29'8 3.1
2020-Mar-23 21:00S 33°54' E 151°28'3 2.0
2020-Mar-23 19:30S 33°57' E 151°26'13 2.2
2020-Mar-23 13:30S 33°50' E 151°39'3 6.9
2020-Mar-23 13:00S 33°53' E 151°38'3 2.2
2020-Mar-23 11:30S 33°55' E 151°35'4 7.2
2020-Mar-23 11:00S 33°52' E 151°33'8 5.3
2020-Mar-23 09:31S 33°50' E 151°24'2 1.0
2020-Mar-23 08:00S 33°50' E 151°26'23 9.1
2020-Mar-23 05:30S 33°58' E 151°51'10 3.2
2020-Mar-23 02:16S 34°05' E 151°43'2 8.9
2020-Mar-23 02:00S 34°03' E 151°43'4 8.6
2020-Mar-23 01:30S 33°59' E 151°42'13 8.5
2020-Mar-23 00:00S 33°46' E 151°41'3 2.2
2020-Mar-22 22:30S 33°48' E 151°44'4 8.4
2020-Mar-22 22:01S 33°52' E 151°43'3 1.7
2020-Mar-22 20:00S 33°52' E 151°39'3 6.6
2020-Mar-22 19:30S 33°51' E 151°43'5 4.9
2020-Mar-22 18:30S 33°49' E 151°48'2 1.7
2020-Mar-22 17:30S 33°50' E 151°47'1 0.9
2020-Mar-22 16:00S 33°49' E 151°45'1 0.3
2020-Mar-22 12:00S 33°50' E 151°46'6 1.7
2020-Mar-22 08:31S 33°52' E 151°40'10 4.2
2020-Mar-22 06:01S 33°51' E 151°52'8 7.8
2020-Mar-22 05:01S 33°53' E 151°43'10 6.5
2020-Mar-22 03:30S 33°51' E 151°31'5 4.6
2020-Mar-22 02:30S 33°51' E 151°26'11 1.5
2020-Mar-21 19:13S 33°52' E 151°13'0 0.0
2020-Mar-21 17:55S 33°52' E 151°13'0 0.0
2020-Mar-21 17:28S 33°52' E 151°13'0 0.0
2020-Mar-21 16:25S 33°52' E 151°13'0 0.0
2020-Mar-21 13:25S 33°52' E 151°13'0 0.0
2020-Mar-21 11:28S 33°52' E 151°13'0 0.0
2020-Mar-21 09:19S 33°52' E 151°13'0 0.0
2020-Mar-20 19:28S 33°52' E 151°13'0 0.0
2020-Mar-20 18:46S 33°52' E 151°13'0 0.0
2020-Mar-20 16:55S 33°52' E 151°13'0 0.0
2020-Mar-20 15:58S 33°52' E 151°13'7 5.1
2020-Mar-20 14:30S 33°51' E 151°21'4 7.1
2020-Mar-20 14:00S 33°52' E 151°26'1110.6
2020-Mar-20 13:00S 33°54' E 151°38'5 2.6
2020-Mar-20 11:00S 33°58' E 151°36'2010.0
2020-Mar-20 09:00S 34°16' E 151°24'4 9.0
2020-Mar-20 08:30S 34°18' E 151°28'21 0.9
2020-Mar-19 09:10S 34°19' E 151°02'  
Track history (hours):
 
Tides and Currents Weather Stations Pressure Air Temp Water Temp Dewpoint Dewpoint Depression Visibility Wind Speed Wind Dir Waves Ship Positions

Carnival Spirit

Last reported at 2020-Mar-29 03:30 UTC. Time now 2020-Apr-02 02:58 UTC.
Position S 32°44' E 152°46'.

Length 293 m; draft 8.5 m.

Type: Ship. MMSI: 229136000.

Date/timePositionNaut miles runAvg speedWind from/ knotsBaromVisibWave heightAir tempDewpointWater temp
2020-Mar-29 03:30S 32°44' E 152°46'5 4.6
2020-Mar-29 02:30S 32°47' E 152°42'21 8.4
2020-Mar-29 00:00S 33°03' E 152°25'510.3
2020-Mar-28 23:30S 33°07' E 152°21'62 7.7
2020-Mar-28 15:30S 33°53' E 151°32'14 4.6
2020-Mar-28 12:30S 34°03' E 151°20'2 3.7
2020-Mar-28 12:00S 34°05' E 151°19'2 3.7
2020-Mar-28 11:30S 34°06' E 151°17'9 0.2
2020-Mar-26 10:59S 34°12' E 151°09'7 7.2
2020-Mar-26 10:00S 34°08' E 151°16'4 7.7
2020-Mar-26 09:30S 34°06' E 151°20'11 7.6
2020-Mar-26 08:00S 33°60' E 151°31'4 8.2
2020-Mar-26 07:30S 33°56' E 151°32'4 8.1
2020-Mar-26 07:00S 33°52' E 151°33'4 7.9
2020-Mar-26 06:30S 33°48' E 151°34'3 6.3
2020-Mar-26 06:00S 33°46' E 151°31'3 6.8
2020-Mar-26 05:30S 33°45' E 151°27'8 7.6
2020-Mar-26 04:30S 33°38' E 151°31'9 7.5
2020-Mar-26 03:18S 33°29' E 151°34'31 7.1
2020-Mar-25 23:00S 33°59' E 151°23'12 5.0
2020-Mar-25 20:30S 33°46' E 151°24'19 1.0
2020-Mar-25 01:31S 34°04' E 151°31'510.8
2020-Mar-25 01:00S 33°59' E 151°33'611.5
2020-Mar-25 00:30S 33°54' E 151°36'4 2.7
2020-Mar-24 23:01S 33°57' E 151°34'3 2.2
2020-Mar-24 21:30S 33°60' E 151°32'13 8.9
2020-Mar-24 20:00S 33°47' E 151°35'4 8.1
2020-Mar-24 19:31S 33°43' E 151°36'3 5.8
2020-Mar-24 19:00S 33°46' E 151°37'10 6.9
2020-Mar-24 17:31S 33°56' E 151°33'3 6.7
2020-Mar-24 17:01S 33°59' E 151°32'7 4.7
2020-Mar-24 15:30S 34°05' E 151°35'10 6.8
2020-Mar-24 14:01S 33°55' E 151°37'4 8.6
2020-Mar-24 13:30S 33°51' E 151°38'611.5
2020-Mar-24 13:01S 33°45' E 151°37'16 5.5
2020-Mar-24 10:01S 33°57' E 151°24'7 4.9
2020-Mar-24 08:30S 33°50' E 151°27'3 5.5
2020-Mar-24 08:00S 33°50' E 151°30'3 6.9
2020-Mar-24 07:30S 33°49' E 151°34'3 1.3
2020-Mar-24 05:30S 33°49' E 151°37'12 2.9
2020-Mar-24 01:30S 33°58' E 151°28'6 6.0
2020-Mar-24 00:30S 33°52' E 151°29'6 5.8
2020-Mar-23 23:31S 33°46' E 151°29'8 3.1
2020-Mar-23 21:00S 33°54' E 151°28'3 2.0
2020-Mar-23 19:30S 33°57' E 151°26'13 2.2
2020-Mar-23 13:30S 33°50' E 151°39'3 6.9
2020-Mar-23 13:00S 33°53' E 151°38'3 2.2
2020-Mar-23 11:30S 33°55' E 151°35'4 7.2
2020-Mar-23 11:00S 33°52' E 151°33'8 5.3
2020-Mar-23 09:31S 33°50' E 151°24'2 1.0
2020-Mar-23 08:00S 33°50' E 151°26'23 9.1
2020-Mar-23 05:30S 33°58' E 151°51'10 3.2
2020-Mar-23 02:16S 34°05' E 151°43'2 8.9
2020-Mar-23 02:00S 34°03' E 151°43'4 8.6
2020-Mar-23 01:30S 33°59' E 151°42'13 8.5
2020-Mar-23 00:00S 33°46' E 151°41'3 2.2
2020-Mar-22 22:30S 33°48' E 151°44'4 8.4
2020-Mar-22 22:01S 33°52' E 151°43'3 1.7
2020-Mar-22 20:00S 33°52' E 151°39'3 6.6
2020-Mar-22 19:30S 33°51' E 151°43'5 4.9
2020-Mar-22 18:30S 33°49' E 151°48'2 1.7
2020-Mar-22 17:30S 33°50' E 151°47'1 0.9
2020-Mar-22 16:00S 33°49' E 151°45'1 0.3
2020-Mar-22 12:00S 33°50' E 151°46'6 1.7
2020-Mar-22 08:31S 33°52' E 151°40'10 4.2
2020-Mar-22 06:01S 33°51' E 151°52'8 7.8
2020-Mar-22 05:01S 33°53' E 151°43'10 6.5
2020-Mar-22 03:30S 33°51' E 151°31'5 4.6
2020-Mar-22 02:30S 33°51' E 151°26'11 1.5
2020-Mar-21 19:13S 33°52' E 151°13'0 0.0
2020-Mar-21 17:55S 33°52' E 151°13'0 0.0
2020-Mar-21 17:28S 33°52' E 151°13'0 0.0
2020-Mar-21 16:25S 33°52' E 151°13'0 0.0
2020-Mar-21 13:25S 33°52' E 151°13'0 0.0
2020-Mar-21 11:28S 33°52' E 151°13'0 0.0
2020-Mar-21 09:19S 33°52' E 151°13'0 0.0
2020-Mar-20 19:28S 33°52' E 151°13'0 0.0
2020-Mar-20 18:46S 33°52' E 151°13'0 0.0
2020-Mar-20 16:55S 33°52' E 151°13'0 0.0
2020-Mar-20 15:58S 33°52' E 151°13'7 5.1
2020-Mar-20 14:30S 33°51' E 151°21'4 7.1
2020-Mar-20 14:00S 33°52' E 151°26'1110.6
2020-Mar-20 13:00S 33°54' E 151°38'5 2.6
2020-Mar-20 11:00S 33°58' E 151°36'2010.0
2020-Mar-20 09:00S 34°16' E 151°24'4 9.0
2020-Mar-20 08:30S 34°18' E 151°28'21 0.9
2020-Mar-19 09:10S 34°19' E 151°02'  

Dump ship's entire track history